Latest Weather Observations for Richmond

IDN60801

Issued at 7:52 pm EDT Wednesday 25 November 2020 (issued every 10 minutes, with the page automatically refreshed every 10 minutes)

About weather observations | Map of weather stations | Latest weather observations for NSW | Other Formats
Station Details ID: 067105 Name: RICHMOND RAAF Lat: -33.60 Lon: 150.78 Height: 19.0 m
Data from the previous 72 hours. | See also: Recent months at Richmond
Date/Time
EDT
Temp
°C
App
Temp
°C
Dew
Point
°C
Rel
Hum
%
Delta-T
°C
Wind Press
QNH
hPa
Press
MSL
hPa
Rain since
9am
mm
Dir  Spd
km/h
Gust
km/h
Spd
kts
Gust
kts
25/07:30pm 22.3 20.3 15.4 65 4.1 ENE 20 28 11 15 1011.0 1010.9 0.2
25/07:00pm 23.5 21.5 15.5 60 4.8 E 20 30 11 16 1010.6 1010.5 0.2
25/06:30pm 25.2 24.3 15.8 56 5.7 ENE 15 20 8 11 1010.3 1010.2 0.2
25/06:00pm 25.9 24.3 15.0 51 6.6 NE 17 22 9 12 1010.3 1010.2 0.2
25/05:30pm 26.0 24.3 14.8 50 6.7 NE 17 22 9 12 1010.3 1010.2 0.2
25/05:00pm 26.4 25.7 15.4 50 6.7 ENE 13 22 7 12 1010.4 1010.3 0.2
25/04:30pm 26.0 23.8 14.5 49 6.9 ENE 19 24 10 13 1010.6 1010.5 0.2
25/04:00pm 26.1 25.2 15.8 53 6.3 NNE 15 26 8 14 1011.1 1011.0 0.2
25/03:30pm 25.9 26.0 16.5 56 5.8 ENE 11 17 6 9 1011.5 1011.4 0.2
25/03:00pm 25.4 25.5 15.4 54 6.1 NNW 9 20 5 11 1011.9 1011.8 0.2
25/02:30pm 24.8 25.2 15.4 56 5.7 NNE 7 13 4 7 1012.5 1012.4 0.2
25/02:00pm 24.3 24.0 14.4 54 5.9 NE 9 19 5 10 1012.9 1012.8 0.2
25/01:30pm 24.4 25.5 16.6 61 4.8 NW 6 11 3 6 1013.3 1013.2 0.2
25/01:00pm 23.3 23.1 14.8 59 5.0 N 9 17 5 9 1013.8 1013.7 0.2
25/12:30pm 23.0 23.3 15.1 61 4.7 N 7 11 4 6 1014.3 1014.2 0.2
25/12:00pm 21.7 21.3 14.1 62 4.4 NW 9 13 5 7 1014.5 1014.4 0.2
25/11:30am 21.1 19.4 14.7 67 3.8 NW 17 24 9 13 1014.7 1014.6 0.2
25/11:00am 23.1 24.4 17.1 69 3.7 SSE 6 17 3 9 1014.9 1014.8 0.0
25/10:30am 21.1 21.5 16.3 74 2.9 NE 9 15 5 8 1015.1 1015.0 0.0
25/10:00am 20.8 21.9 15.6 72 3.1 ESE 4 7 2 4 1015.4 1015.3 0.0
25/09:30am 20.3 21.9 15.9 76 2.6 SSW 2 9 1 5 1015.4 1015.3 0.0
25/09:13am 20.2 21.7 16.6 80 2.2 SSW 4 9 2 5 1015.4 1015.3 0.0
25/09:00am 19.6 21.1 16.6 83 1.8 SSE 4 7 2 4 1015.4 1015.3 0.4
25/08:47am 19.7 21.4 17.1 85 1.6 WSW 4 9 2 5 1015.4 1015.3 0.4
25/08:30am 18.9 20.0 17.0 89 1.1 SSW 7 9 4 5 1015.5 1015.4 0.4
25/08:00am 18.1 19.3 17.3 95 0.5 SW 7 11 4 6 1015.3 1015.2 0.4
25/07:30am 17.5 19.9 17.0 97 0.3 CALM 0 0 0 0 1015.2 1015.1 0.4
25/07:00am 17.3 19.3 17.0 98 0.2 WSW 2 7 1 4 1014.8 1014.7 0.4
25/06:30am 17.0 17.6 16.7 98 0.2 SW 9 13 5 7 1014.4 1014.3 0.4
25/06:00am 16.7 16.8 16.4 98 0.2 WSW 11 13 6 7 1014.1 1014.0 0.4
25/05:48am 16.8 17.7 16.5 98 0.2 SW 7 11 4 6 1014.0 1013.9 0.4
25/05:30am 16.8 17.7 16.5 98 0.2 E 7 9 4 5 1013.9 1013.8 0.4
25/05:29am 16.8 17.7 16.5 98 0.2 E 7 9 4 5 1013.9 1013.8 0.4
25/05:00am 16.8 17.9 16.5 98 0.2 NE 6 7 3 4 1013.7 1013.6 0.2
25/04:30am 16.8 19.0 16.5 98 0.2 CALM 0 6 0 3 1013.5 1013.4 0.2
25/04:00am 16.7 18.4 16.1 96 0.4 SSE 2 6 1 3 1013.4 1013.3 0.2
25/03:30am 16.5 18.6 16.2 98 0.2 CALM 0 0 0 0 1013.4 1013.3 0.2
25/03:00am 16.4 17.9 15.8 96 0.4 W 2 6 1 3 1013.6 1013.5 0.2
25/02:30am 16.5 17.1 15.9 96 0.4 W 7 9 4 5 1013.7 1013.6 0.2
25/02:00am 16.6 16.9 16.1 97 0.3 SW 9 11 5 6 1013.8 1013.7 0.2
25/01:30am 16.8 17.3 16.5 98 0.2 SW 9 11 5 6 1014.1 1014.0 0.2
25/01:00am 17.0 17.4 16.2 95 0.5 W 9 11 5 6 1014.4 1014.3 0.2
25/12:30am 17.6 19.6 15.9 90 1.0 CALM 0 0 0 0 1014.7 1014.6 0.2
25/12:00am 17.9 19.9 16.1 89 1.1 CALM 0 7 0 4 1014.8 1014.7 0.2
 
Date/Time
EDT
Temp
°C
App
Temp
°C
Dew
Point
°C
Rel
Hum
%
Delta-T
°C
Wind Press
QNH
hPa
Press
MSL
hPa
Rain since
9am
mm
Dir  Spd
km/h
Gust
km/h
Spd
kts
Gust
kts
24/11:30pm 18.1 18.6 15.5 85 1.5 NE 7 9 4 5 1014.7 1014.6 0.2
24/11:00pm 18.1 18.7 15.7 86 1.4 ENE 7 11 4 6 1014.6 1014.5 0.2
24/10:30pm 18.4 18.6 15.8 85 1.5 NNE 9 11 5 6 1014.5 1014.4 0.2
24/10:00pm 18.8 18.4 15.3 80 2.1 ENE 11 17 6 9 1014.4 1014.3 0.2
24/09:30pm 19.3 18.8 14.8 75 2.6 ESE 11 15 6 8 1014.2 1014.1 0.2
24/09:00pm 19.6 18.5 14.4 72 3.0 E 13 19 7 10 1014.0 1013.9 0.2
24/08:30pm 19.7 18.9 14.1 70 3.2 E 11 15 6 8 1013.4 1013.3 0.2
24/08:00pm 19.9 18.6 13.8 68 3.5 ESE 13 17 7 9 1012.8 1012.7 0.2
24/07:30pm 20.4 18.4 13.8 66 3.8 ESE 17 20 9 11 1012.3 1012.2 0.2
24/07:00pm 20.9 18.2 13.6 63 4.2 ESE 20 28 11 15 1011.7 1011.6 0.2
24/06:30pm 21.4 18.4 13.6 61 4.5 ESE 22 26 12 14 1011.0 1010.9 0.2
24/06:00pm 21.9 19.7 13.3 58 5.0 E 17 24 9 13 1010.4 1010.3 0.2
24/05:30pm 22.3 19.8 12.3 53 5.7 SE 17 22 9 12 1010.3 1010.2 0.2
24/05:00pm 23.0 19.4 12.0 50 6.2 SE 22 28 12 15 1010.1 1010.0 0.2
24/04:30pm 24.0 21.3 13.5 52 6.1 SE 20 24 11 13 1010.0 1009.9 0.2
24/04:00pm 22.8 19.8 12.4 52 5.9 E 20 30 11 16 1010.2 1010.1 0.2
24/03:30pm 23.0 19.2 12.3 51 6.1 ESE 24 30 13 16 1010.4 1010.3 0.2
24/03:00pm 23.5 20.4 12.2 49 6.4 ESE 20 28 11 15 1010.3 1010.2 0.2
24/02:30pm 23.5 21.2 13.1 52 6.0 E 17 26 9 14 1010.6 1010.5 0.2
24/02:00pm 25.1 22.3 13.3 48 6.9 ESE 20 30 11 16 1010.7 1010.6 0.2
24/01:30pm 24.2 22.3 14.3 54 5.9 SSE 17 24 9 13 1011.0 1010.9 0.2
24/01:00pm 23.2 22.1 14.2 57 5.3 ESE 13 20 7 11 1011.0 1010.9 0.2
24/12:30pm 23.0 21.2 13.2 54 5.7 SE 15 20 8 11 1010.9 1010.8 0.2
24/12:00pm 23.0 22.0 13.5 55 5.5 E 11 20 6 11 1011.2 1011.1 0.2
24/11:30am 21.9 20.6 13.8 60 4.7 SE 13 22 7 12 1012.1 1012.0 0.2
24/11:00am 22.3 20.9 14.4 61 4.6 SE 15 20 8 11 1012.1 1012.0 0.0
24/10:30am 21.5 20.2 14.9 66 3.9 SSE 15 22 8 12 1012.3 1012.2 0.0
24/10:00am 21.4 20.6 12.8 58 4.9 SSE 9 17 5 9 1012.2 1012.1 0.0
24/09:30am 20.8 19.7 14.2 66 3.8 S 13 19 7 10 1012.0 1011.9 0.0
24/09:00am 20.7 19.6 14.4 67 3.7 SSE 13 24 7 13 1011.9 1011.8 0.0
24/08:30am 20.6 19.8 15.2 71 3.2 SSE 13 19 7 10 1011.6 1011.5 0.0
24/08:00am 19.0 19.8 16.4 85 1.6 SW 7 11 4 6 1011.6 1011.5 0.0
24/07:30am 18.3 20.0 16.3 88 1.2 WSW 2 9 1 5 1011.4 1011.3 0.0
24/07:00am 17.6 19.0 17.4 99 0.1 WSW 6 9 3 5 1011.1 1011.0 0.0
24/06:30am 16.0 16.8 15.8 99 0.1 WSW 6 7 3 4 1010.9 1010.8 0.0
24/06:00am 15.7 17.1 15.5 99 0.1 SE 2 7 1 4 1010.3 1010.2 0.0
24/05:30am 15.0 16.6 14.8 99 0.1 CALM 0 0 0 0 1009.8 1009.7 0.0
24/05:29am 15.0 16.6 14.8 99 0.1 CALM 0 0 0 0 1009.8 1009.7 0.0
24/05:03am 14.8 16.3 14.6 99 0.1 CALM 0 0 0 0 1009.3 1009.2 0.0
24/05:00am 14.4 15.7 14.2 99 0.1 CALM 0 0 0 0 1009.3 1009.2 0.0
24/04:30am 14.2 15.4 13.9 98 0.2 CALM 0 0 0 0 1008.9 1008.8 0.0
24/04:00am 15.0 16.5 14.7 98 0.2 CALM 0 0 0 0 1008.8 1008.7 0.0
24/03:30am 15.2 16.8 14.9 98 0.2 CALM 0 0 0 0 1008.9 1008.8 0.0
24/03:00am 15.4 17.0 14.8 96 0.3 CALM 0 0 0 0 1009.2 1009.1 0.0
24/02:30am 16.1 17.9 15.5 96 0.3 CALM 0 0 0 0 1009.2 1009.1 0.0
24/02:00am 16.4 17.8 15.3 93 0.6 WSW 2 6 1 3 1009.5 1009.4 0.0
24/01:30am 17.0 18.7 15.3 90 1.0 CALM 0 0 0 0 1009.4 1009.3 0.0
24/01:00am 17.6 19.4 15.6 88 1.2 CALM 0 0 0 0 1009.4 1009.3 0.0
24/12:30am 17.8 18.2 15.4 86 1.4 SW 7 9 4 5 1009.4 1009.3 0.0
24/12:00am 18.1 18.5 15.2 83 1.7 SW 7 9 4 5 1009.4 1009.3 0.0
 
Date/Time
EDT
Temp
°C
App
Temp
°C
Dew
Point
°C
Rel
Hum
%
Delta-T
°C
Wind Press
QNH
hPa
Press
MSL
hPa
Rain since
9am
mm
Dir  Spd
km/h
Gust
km/h
Spd
kts
Gust
kts
23/11:30pm 19.0 19.5 14.9 77 2.4 S 6 9 3 5 1009.2 1009.1 0.0
23/11:00pm 19.5 19.1 15.2 76 2.5 SE 11 17 6 9 1008.8 1008.7 0.0
23/10:30pm 20.0 19.0 15.6 76 2.6 SE 15 20 8 11 1008.5 1008.4 0.0
23/10:00pm 20.5 20.5 15.3 72 3.1 SSW 9 13 5 7 1008.0 1007.9 0.0
23/09:30pm 21.6 21.0 14.5 64 4.2 WSW 11 15 6 8 1007.3 1007.2 0.0
23/09:00pm 21.8 20.6 13.9 61 4.6 W 13 17 7 9 1006.6 1006.5 0.0
23/08:30pm 23.0 21.9 14.3 58 5.1 W 13 24 7 13 1006.0 1005.9 0.0
23/08:00pm 23.8 22.0 14.5 56 5.5 W 17 24 9 13 1005.4 1005.3 0.0
23/07:30pm 23.8 23.6 15.8 61 4.8 NW 11 17 6 9 1004.7 1004.6 0.0
23/07:00pm 24.4 24.0 16.1 60 5.1 WNW 13 17 7 9 1005.4 1005.3 0.0
23/06:30pm 25.4 25.2 15.7 55 5.9 WNW 11 17 6 9 1005.4 1005.3 0.0
23/06:00pm 25.6 25.1 15.9 55 5.9 NW 13 19 7 10 1005.2 1005.1 0.0
23/05:30pm 26.1 23.7 15.5 52 6.4 W 22 37 12 20 1005.3 1005.2 0.0
23/05:00pm 26.6 22.3 15.3 50 6.9 WNW 32 50 17 27 1005.0 1004.9 0.0
23/04:52pm 26.9 23.0 14.3 46 7.5 W 28 50 15 27 1005.0 1004.9 0.0
23/04:30pm 26.8 24.2 14.9 48 7.2 W 22 43 12 23 1004.6 1004.5 0.0
23/04:00pm 25.5 25.8 16.1 56 5.8 NNE 9 15 5 8 1004.7 1004.6 0.0
23/03:30pm 24.4 22.4 15.6 58 5.3 NNW 20 24 11 13 1004.8 1004.7 0.0
23/03:00pm 24.3 23.7 14.7 55 5.7 E 11 19 6 10 1005.2 1005.1 0.0
23/02:30pm 24.1 20.1 14.2 54 5.8 NNW 28 37 15 20 1004.1 1004.0 0.0
23/02:00pm 24.6 20.6 14.1 52 6.2 NW 28 41 15 22 1005.1 1005.0 0.0
23/01:30pm 24.3 20.3 15.2 57 5.5 WNW 30 43 16 23 1006.8 1006.7 0.0
23/01:00pm 25.6 21.7 16.5 57 5.6 W 32 52 17 28 1006.8 1006.7 0.0
23/12:53pm 25.7 22.6 16.5 56 5.7 W 28 52 15 28 1007.1 1007.0 0.0
23/12:40pm 25.8 24.4 16.9 58 5.5 W 20 48 11 26 1007.4 1007.3 0.0
23/12:30pm 24.1 26.2 19.4 75 3.0 N 7 11 4 6 1007.3 1007.2 0.0
23/12:00pm 24.2 24.9 18.8 72 3.4 WNW 13 17 7 9 1007.5 1007.4 0.0
23/11:30am 24.2 22.6 18.4 70 3.7 W 24 33 13 18 1008.3 1008.2 0.0
23/11:00am 24.6 26.8 19.7 74 3.2 NNW 7 9 4 5 1007.6 1007.5 0.0
23/10:30am 24.3 26.6 19.8 76 2.9 N 7 11 4 6 1007.8 1007.7 0.0
23/10:00am 23.4 25.0 20.0 81 2.2 NNE 11 13 6 7 1007.8 1007.7 0.0
23/09:30am 23.5 24.7 19.8 80 2.4 NNE 13 19 7 10 1008.2 1008.1 0.0
23/09:00am 22.7 24.3 20.8 89 1.2 NNE 13 19 7 10 1008.4 1008.3 2.0
23/08:30am 21.9 23.7 20.4 91 1.0 N 11 17 6 9 1008.8 1008.7 2.0
23/08:00am 21.4 23.6 21.2 99 0.1 NNE 11 13 6 7 1008.8 1008.7 2.0
23/07:30am 20.8 23.1 20.6 99 0.1 NE 9 11 5 6 1008.9 1008.8 1.8
23/07:00am 20.7 22.9 20.5 99 0.1 NNW 9 11 5 6 1009.4 1009.3 1.8
23/06:30am 20.5 22.7 20.3 99 0.1 N 9 11 5 6 1009.5 1009.4 1.8
23/06:00am 20.4 22.9 20.2 99 0.1 WNW 7 9 4 5 1009.7 1009.6 1.8
23/05:30am 20.7 23.3 20.0 96 0.4 SW 6 7 3 4 1009.8 1009.7 1.8
23/05:00am 21.1 25.0 20.3 95 0.5 CALM 0 0 0 0 1010.1 1010.0 1.8
23/04:30am 21.4 21.5 20.4 94 0.6 SSE 20 28 11 15 1010.0 1009.9 1.8
23/04:00am 21.3 21.9 20.3 94 0.6 S 17 28 9 15 1010.2 1010.1 1.2
23/03:30am 20.5 22.7 20.3 99 0.1 SW 9 13 5 7 1008.7 1008.6 1.2
23/03:00am 19.9 23.5 19.7 99 0.1 CALM 0 0 0 0 1008.2 1008.1 1.2
23/02:30am 19.9 23.5 19.7 99 0.1 CALM 0 0 0 0 1008.0 1007.9 1.2
23/02:00am 19.9 23.5 19.7 99 0.1 CALM 0 0 0 0 1008.6 1008.5 1.2
23/01:30am 20.1 23.8 19.9 99 0.1 CALM 0 0 0 0 1008.9 1008.8 1.2
23/01:00am 20.7 24.4 19.9 95 0.5 CALM 0 0 0 0 1009.4 1009.3 1.2
23/12:30am 20.6 23.3 19.4 93 0.8 NNE 4 7 2 4 1010.0 1009.9 1.2
23/12:00am 21.6 24.1 19.0 85 1.6 ENE 4 6 2 3 1010.6 1010.5 1.2
 
Date/Time
EDT
Temp
°C
App
Temp
°C
Dew
Point
°C
Rel
Hum
%
Delta-T
°C
Wind Press
QNH
hPa
Press
MSL
hPa
Rain since
9am
mm
Dir  Spd
km/h
Gust
km/h
Spd
kts
Gust
kts
22/11:30pm 21.7 25.4 20.0 90 1.1 CALM 0 0 0 0 1010.9 1010.8 1.2
22/11:00pm 21.9 23.8 19.8 88 1.3 NE 9 9 5 5 1011.1 1011.0 1.2
22/10:30pm 22.3 24.6 20.6 90 1.1 ENE 9 11 5 6 1011.4 1011.3 1.2
22/10:00pm 22.4 24.8 20.9 91 1.0 NE 9 11 5 6 1011.7 1011.6 1.2
22/09:30pm 22.3 24.7 20.9 92 0.9 NE 9 11 5 6 1011.5 1011.4 1.2
22/09:00pm 22.8 25.5 20.7 88 1.4 NE 7 9 4 5 1011.4 1011.3 1.2
22/08:30pm 23.8 26.9 21.1 85 1.8 ENE 6 9 3 5 1011.4 1011.3 1.2
22/08:00pm 24.1 27.1 20.8 82 2.2 NE 6 9 3 5 1011.5 1011.4 1.2

Other formats

Comma delimited format used in spreadsheet applications
http://www.bom.gov.au/fwo/IDN60801/IDN60801.95753.axf

JavaScript Object Notation format (JSON) in row-major order
http://www.bom.gov.au/fwo/IDN60801/IDN60801.95753.json

Data quality

Most of these data are generated automatically and are frequently updated. Quality checks on data are not normally performed. It is possible for incorrect values to appear. Refer to information at About Latest Weather Observations and please check the disclaimer before using these data.